Time;durP1;ratioP1;P1;durP2;ratioP2;P2;SDS_P1;SDS_P2;PMS_P1;PMS_P2;Temp;Humidity;BMP_temperature;BMP_pressure;BME280_temperature;BME280_humidity;BME280_pressure;Samples;Min_cycle;Max_cycle;Signal;HPM_P1;HPM_P2
2022/12/19 00:00:00;;;;;;;82.33;25.20;;;;;;;;;;5013769;28;20496;-59
2022/12/19 00:02:29;;;;;;;69.93;24.20;;;2.20;94.10;;;;;;5011237;28;20563;-60
2022/12/19 00:04:56;;;;;;;62.00;22.33;;;2.20;94.10;;;;;;5018484;28;20489;-60
2022/12/19 00:07:23;;;;;;;76.47;24.60;;;2.30;94.10;;;;;;5013091;28;20834;-60
2022/12/19 00:09:54;;;;;;;68.37;27.30;;;;;;;;;;5017949;28;20621;-59
2022/12/19 00:12:21;;;;;;;72.63;26.20;;;;;;;;;;5024361;28;20516;-60
2022/12/19 00:14:50;;;;;;;60.90;24.53;;;;;;;;;;5009723;28;20840;-60
2022/12/19 00:17:17;;;;;;;83.27;24.23;;;2.10;94.50;;;;;;5011032;28;20488;-59
2022/12/19 00:19:45;;;;;;;88.63;29.33;;;2.10;94.30;;;;;;5004880;28;20503;-59
2022/12/19 00:22:12;;;;;;;68.83;25.60;;;2.20;94.40;;;;;;5020740;28;20708;-59
2022/12/19 00:24:38;;;;;;;85.57;27.37;;;2.20;94.40;;;;;;5009938;28;20477;-59
2022/12/19 00:27:05;;;;;;;75.83;25.70;;;2.30;94.30;;;;;;5011344;28;20480;-59
2022/12/19 00:29:33;;;;;;;63.10;23.07;;;2.30;94.20;;;;;;5014624;28;20997;-60
2022/12/19 00:31:59;;;;;;;65.13;23.40;;;2.40;94.20;;;;;;5018164;28;20485;-60
2022/12/19 00:34:26;;;;;;;59.10;22.67;;;2.40;94.10;;;;;;5008848;28;20495;-60
2022/12/19 00:36:55;;;;;;;71.13;21.43;;;;;;;;;;5011423;28;20508;-59
2022/12/19 00:39:22;;;;;;;78.43;24.03;;;2.40;94.10;;;;;;5011599;28;20477;-60
2022/12/19 00:41:48;;;;;;;66.70;23.63;;;3.90;94.80;;;;;;5012787;28;20492;-60
2022/12/19 00:44:15;;;;;;;73.90;25.27;;;2.40;94.30;;;;;;5010361;28;20694;-60
2022/12/19 00:46:42;;;;;;;87.87;29.20;;;2.50;94.30;;;;;;5019851;28;20487;-60
2022/12/19 00:49:09;;;;;;;73.67;22.90;;;;;;;;;;5028464;28;20479;-60
2022/12/19 00:51:37;;;;;;;104.30;29.87;;;2.50;94.40;;;;;;5052835;28;20499;-60
2022/12/19 00:54:05;;;;;;;89.33;23.80;;;2.60;94.40;;;;;;5009878;28;20600;-60
2022/12/19 00:56:34;;;;;;;70.63;24.40;;;2.60;94.30;;;;;;5028057;28;20980;-60
2022/12/19 00:59:01;;;;;;;77.70;25.37;;;;;;;;;;5019401;28;20526;-60
2022/12/19 01:01:30;;;;;;;75.40;22.43;;;2.70;94.30;;;;;;5029631;28;21058;-60
2022/12/19 01:03:58;;;;;;;87.37;25.10;;;2.80;94.30;;;;;;5035005;28;20503;-60
2022/12/19 01:06:25;;;;;;;59.53;23.57;;;;;;;;;;5025471;28;20482;-60
2022/12/19 01:08:52;;;;;;;79.13;25.03;;;;;;;;;;5016186;28;20485;-60
2022/12/19 01:12:44;;;;;;;65.70;23.73;;;2.80;94.20;;;;;;5013570;28;20473;-60
2022/12/19 01:14:07;;;;;;;62.57;23.70;;;;;;;;;;5012870;28;21021;-59
2022/12/19 01:16:34;;;;;;;85.37;26.07;;;2.80;94.10;;;;;;5011460;28;20476;-60
2022/12/19 01:19:01;;;;;;;67.33;23.17;;;2.70;94.10;;;;;;5010768;28;20503;-60
2022/12/19 01:21:28;;;;;;;72.80;21.37;;;;;;;;;;5011185;28;20484;-60
2022/12/19 01:23:55;;;;;;;71.17;23.13;;;;;;;;;;5011130;28;20485;-60
2022/12/19 01:26:23;;;;;;;71.97;23.70;;;2.50;94.80;;;;;;5012329;28;20481;-60
2022/12/19 01:28:49;;;;;;;74.53;24.27;;;2.50;94.90;;;;;;5010688;28;20486;-59
2022/12/19 01:31:16;;;;;;;69.70;26.17;;;2.60;94.80;;;;;;5010477;28;20993;-59
2022/12/19 01:33:43;;;;;;;85.33;27.03;;;2.50;94.60;;;;;;5010824;28;20473;-59
2022/12/19 01:36:10;;;;;;;78.33;22.97;;;2.60;94.80;;;;;;5012352;28;21005;-59
2022/12/19 01:38:37;;;;;;;85.10;27.57;;;;;;;;;;5012939;28;20484;-60
2022/12/19 01:41:04;;;;;;;73.83;23.50;;;2.70;94.60;;;;;;5018014;28;20472;-60
2022/12/19 01:43:34;;;;;;;93.00;26.13;;;;;;;;;;5015246;28;21089;-60
2022/12/19 01:46:04;;;;;;;83.23;26.97;;;2.40;94.40;;;;;;5013194;28;20488;-60
2022/12/19 01:48:32;;;;;;;60.90;23.53;;;;;;;;;;5013009;28;20508;-60
2022/12/19 01:51:01;;;;;;;72.70;21.37;;;4.40;95.80;;;;;;4999389;28;20460;-60
2022/12/19 01:53:29;;;;;;;70.57;23.23;;;;;;;;;;5011077;28;21123;-60
2022/12/19 01:55:56;;;;;;;68.53;24.23;;;2.50;94.90;;;;;;5012854;28;20473;-60
2022/12/19 01:58:23;;;;;;;69.20;21.27;;;2.60;95.00;;;;;;5020555;28;20485;-60
2022/12/19 02:00:51;;;;;;;72.83;24.87;;;2.70;95.00;;;;;;5021120;28;20480;-60
2022/12/19 02:03:20;;;;;;;91.70;27.57;;;;;;;;;;5034044;28;21041;-60
2022/12/19 02:05:47;;;;;;;111.07;29.23;;;;;;;;;;5016346;28;20497;-60
2022/12/19 02:08:14;;;;;;;76.23;24.20;;;2.50;95.50;;;;;;5018103;28;20492;-60
2022/12/19 02:10:41;;;;;;;88.60;29.63;;;-1.20;93.90;;;;;;5020818;28;20843;-60
2022/12/19 02:13:08;;;;;;;80.57;27.40;;;;;;;;;;5008491;28;20492;-60
2022/12/19 02:15:45;;;;;;;80.77;29.23;;;2.30;95.90;;;;;;5026793;28;20481;-60
2022/12/19 02:18:25;;;;;;;73.90;21.23;;;2.30;96.00;;;;;;5013059;28;20467;-60
2022/12/19 02:21:07;;;;;;;58.23;24.10;;;2.20;96.00;;;;;;5018720;28;21204;-59
2022/12/19 02:24:08;;;;;;;91.03;29.10;;;2.20;96.00;;;;;;5013629;28;20864;-60
2022/12/19 02:26:58;;;;;;;89.67;29.27;;;2.30;96.20;;;;;;5046600;28;20887;-60
2022/12/19 02:29:58;;;;;;;73.00;26.10;;;2.30;96.00;;;;;;5026201;28;20465;-59
2022/12/19 02:32:31;;;;;;;70.63;23.87;;;2.30;96.30;;;;;;5019622;28;20858;-59
2022/12/19 02:35:05;;;;;;;68.17;24.57;;;2.30;96.50;;;;;;5015432;28;22655;-59
2022/12/19 02:37:34;;;;;;;73.17;26.07;;;;;;;;;;5014428;28;20469;-59
2022/12/19 02:40:09;;;;;;;95.03;26.40;;;2.40;96.40;;;;;;5011471;28;20492;-59
2022/12/19 02:42:38;;;;;;;106.23;29.20;;;;;;;;;;5014078;28;20484;-59
2022/12/19 02:45:07;;;;;;;78.10;26.37;;;;;;;;;;5012362;28;20834;-60
2022/12/19 02:47:35;;;;;;;86.43;29.07;;;;;;;;;;5012742;28;20511;-60
2022/12/19 02:50:03;;;;;;;65.03;24.57;;;2.40;96.20;;;;;;5028496;28;20483;-59
2022/12/19 02:52:45;;;;;;;65.27;23.20;;;;;;;;;;5018171;28;20487;-60
2022/12/19 02:55:15;;;;;;;74.37;24.90;;;;;;;;;;5009749;28;20704;-60
2022/12/19 02:57:53;;;;;;;83.43;28.00;;;2.60;96.00;;;;;;5012007;28;20814;-60
2022/12/19 03:00:21;;;;;;;67.13;24.40;;;;;;;;;;5018347;28;20480;-60
2022/12/19 03:02:57;;;;;;;69.10;25.03;;;2.80;95.80;;;;;;5026529;28;20464;-60
2022/12/19 03:05:31;;;;;;;85.73;24.50;;;2.90;95.60;;;;;;5028705;28;20480;-60
2022/12/19 03:08:01;;;;;;;65.10;23.50;;;;;;;;;;5013617;28;20472;-60
2022/12/19 03:10:32;;;;;;;81.40;25.67;;;;;;;;;;5011509;28;20831;-59
2022/12/19 03:13:01;;;;;;;76.03;23.77;;;;;;;;;;5037615;28;20496;-60
2022/12/19 03:15:28;;;;;;;59.27;22.03;;;2.80;95.50;;;;;;5012677;28;20747;-60
2022/12/19 03:17:58;;;;;;;89.60;25.13;;;;;;;;;;5021083;28;20512;-60
2022/12/19 03:20:32;;;;;;;87.33;34.63;;;0.80;95.10;;;;;;5015521;28;20477;-60
2022/12/19 03:22:58;;;;;;;75.63;24.30;;;2.60;96.20;;;;;;5018280;28;20492;-60
2022/12/19 03:25:26;;;;;;;63.23;24.50;;;2.70;96.10;;;;;;5017785;28;20476;-60
2022/12/19 03:27:55;;;;;;;60.10;22.00;;;2.80;96.00;;;;;;5016559;28;20473;-59
2022/12/19 03:30:22;;;;;;;78.17;23.07;;;2.80;96.10;;;;;;5036917;28;20484;-60
2022/12/19 03:32:49;;;;;;;63.87;23.90;;;2.90;96.00;;;;;;5017351;28;20473;-60
2022/12/19 03:35:21;;;;;;;65.77;23.13;;;2.90;95.90;;;;;;5028737;28;20534;-60
2022/12/19 03:37:50;;;;;;;77.60;25.40;;;2.90;96.10;;;;;;5040172;28;20487;-60
2022/12/19 03:40:19;;;;;;;70.57;24.20;;;;;;;;;;5037838;28;20846;-60
2022/12/19 03:45:36;;;;;;;72.70;26.77;;;;;;;;;;5022460;28;20597;-60
2022/12/19 03:48:07;;;;;;;72.77;25.10;;;3.10;95.80;;;;;;5020251;28;20481;-60
2022/12/19 03:50:46;;;;;;;84.10;28.30;;;3.10;95.70;;;;;;5026727;28;20983;-60
2022/12/19 03:53:24;;;;;;;66.13;23.23;;;3.10;95.60;;;;;;5025267;28;20476;-60
2022/12/19 03:55:55;;;;;;;67.07;22.97;;;;;;;;;;5025740;28;20930;-59
2022/12/19 03:58:25;;;;;;;70.03;23.87;;;;;;;;;;5016620;28;20500;-59
2022/12/19 04:00:52;;;;;;;78.33;22.97;;;3.10;95.90;;;;;;5023155;28;20480;-59
2022/12/19 04:03:20;;;;;;;73.73;25.33;;;3.20;95.80;;;;;;5020482;28;20805;-59
2022/12/19 04:05:49;;;;;;;68.13;26.60;;;3.20;95.60;;;;;;5011098;28;20477;-59
2022/12/19 04:08:17;;;;;;;86.30;27.83;;;3.30;95.50;;;;;;5039982;28;20489;-59
2022/12/19 04:10:48;;;;;;;72.57;28.50;;;3.10;95.50;;;;;;5038701;28;20862;-60
2022/12/19 04:13:16;;;;;;;76.53;26.07;;;;;;;;;;5040197;28;20494;-60
2022/12/19 04:15:51;;;;;;;79.33;28.63;;;2.80;96.20;;;;;;5040135;28;20488;-59
2022/12/19 04:18:19;;;;;;;76.73;26.67;;;2.70;96.30;;;;;;5032559;28;20480;-60
2022/12/19 04:20:55;;;;;;;81.43;28.20;;;2.70;96.40;;;;;;5035342;28;20503;-59
2022/12/19 04:23:23;;;;;;;65.87;23.80;;;;;;;;;;5038052;28;20508;-60
2022/12/19 04:25:51;;;;;;;72.20;24.40;;;;;;;;;;5032219;28;20473;-59
2022/12/19 04:28:22;;;;;;;77.50;23.97;;;2.90;96.30;;;;;;5028102;28;20480;-60
2022/12/19 04:30:50;;;;;;;71.57;24.13;;;3.00;96.30;;;;;;5036971;28;20481;-60
2022/12/19 04:33:16;;;;;;;61.47;22.60;;;3.10;96.10;;;;;;5033540;28;20491;-60
2022/12/19 04:35:43;;;;;;;73.53;22.87;;;3.10;96.00;;;;;;5036286;28;20492;-60
2022/12/19 04:38:11;;;;;;;68.70;24.30;;;3.10;95.60;;;;;;5034420;28;20484;-60
2022/12/19 04:40:38;;;;;;;82.20;28.40;;;3.20;95.80;;;;;;5035649;28;20519;-60
2022/12/19 04:43:06;;;;;;;66.60;22.10;;;3.20;95.80;;;;;;5039614;28;21172;-60
2022/12/19 04:45:33;;;;;;;88.17;26.63;;;3.20;95.90;;;;;;5035333;28;21032;-60
2022/12/19 04:48:00;;;;;;;86.83;29.10;;;;;;;;;;5036906;28;20515;-60
2022/12/19 04:50:26;;;;;;;70.03;22.93;;;0.80;94.90;;;;;;5033566;28;20759;-60
2022/12/19 04:52:53;;;;;;;66.87;26.40;;;3.20;95.90;;;;;;5035670;28;20492;-60
2022/12/19 04:55:21;;;;;;;81.00;26.10;;;3.00;96.00;;;;;;5035559;28;20480;-60
2022/12/19 04:57:48;;;;;;;95.00;29.10;;;2.80;96.20;;;;;;5036745;28;20489;-60
2022/12/19 05:00:16;;;;;;;76.90;26.00;;;2.80;96.70;;;;;;5035074;28;20502;-60
2022/12/19 05:02:43;;;;;;;89.43;27.83;;;2.80;96.80;;;;;;5035630;28;20487;-60
2022/12/19 05:05:10;;;;;;;83.73;25.40;;;;;;;;;;5035818;28;21075;-59
2022/12/19 05:07:36;;;;;;;112.13;32.97;;;3.00;96.90;;;;;;5034543;28;20480;-59
2022/12/19 05:10:04;;;;;;;70.50;22.90;;;3.10;96.80;;;;;;5033915;28;20899;-59
2022/12/19 05:12:32;;;;;;;64.33;23.53;;;3.20;96.90;;;;;;5037596;28;20476;-58
2022/12/19 05:14:59;;;;;;;82.53;25.63;;;3.30;96.90;;;;;;5039004;28;20476;-59
2022/12/19 05:17:26;;;;;;;59.57;24.03;;;3.40;96.70;;;;;;5021871;28;20476;-59
2022/12/19 05:19:52;;;;;;;108.43;28.33;;;3.50;96.70;;;;;;5031852;28;20484;-59
2022/12/19 05:22:19;;;;;;;94.80;27.27;;;3.50;96.60;;;;;;5025285;28;20488;-59
2022/12/19 05:24:46;;;;;;;125.63;30.97;;;3.60;96.70;;;;;;5018198;28;20497;-59
2022/12/19 05:27:13;;;;;;;92.57;27.63;;;;;;;;;;5016767;28;20489;-60
2022/12/19 05:29:41;;;;;;;146.57;33.50;;;1.10;95.50;;;;;;5019286;28;20760;-60
2022/12/19 05:32:08;;;;;;;81.30;26.63;;;;;;;;;;5023477;28;21055;-60
2022/12/19 05:34:35;;;;;;;137.13;31.43;;;;;;;;;;5023048;28;20480;-60
2022/12/19 05:37:02;;;;;;;94.10;25.20;;;3.60;96.80;;;;;;5020872;28;20484;-60
2022/12/19 05:39:29;;;;;;;78.57;24.00;;;;;;;;;;5022282;28;20492;-60
2022/12/19 05:41:56;;;;;;;76.77;23.40;;;3.60;96.90;;;;;;5020305;28;20479;-60
2022/12/19 05:44:22;;;;;;;67.70;21.77;;;3.70;96.90;;;;;;5028262;28;20480;-60
2022/12/19 05:46:51;;;;;;;78.20;26.30;;;;;;;;;;5020443;28;20485;-60
2022/12/19 05:49:18;;;;;;;60.80;22.10;;;3.90;96.70;;;;;;5020600;28;20477;-60
2022/12/19 05:51:46;;;;;;;110.20;36.70;;;3.90;96.60;;;;;;5023349;28;20488;-60
2022/12/19 05:54:13;;;;;;;105.23;37.37;;;4.00;96.60;;;;;;5024698;28;20488;-60
2022/12/19 05:56:40;;;;;;;118.43;32.10;;;3.90;96.40;;;;;;5024915;28;20481;-60
2022/12/19 05:59:06;;;;;;;64.90;22.40;;;3.80;96.60;;;;;;5024851;28;20488;-60
2022/12/19 06:01:33;;;;;;;70.33;25.50;;;;;;;;;;5023975;28;20850;-60
2022/12/19 06:04:02;;;;;;;90.53;26.87;;;3.60;96.80;;;;;;5029378;28;20471;-60
2022/12/19 06:06:29;;;;;;;78.87;20.70;;;3.40;96.90;;;;;;5018591;28;20488;-59
2022/12/19 06:08:57;;;;;;;72.80;23.63;;;3.50;97.40;;;;;;5024086;28;20808;-60
2022/12/19 06:11:25;;;;;;;82.43;23.93;;;3.60;97.30;;;;;;5025026;28;20484;-60
2022/12/19 06:13:52;;;;;;;80.77;26.67;;;3.70;97.30;;;;;;5024735;28;20828;-60
2022/12/19 06:16:19;;;;;;;97.90;28.40;;;;;;;;;;5026235;28;20495;-60
2022/12/19 06:18:47;;;;;;;96.57;32.47;;;3.70;96.90;;;;;;5025233;28;21211;-60
2022/12/19 06:21:18;;;;;;;95.43;27.37;;;3.80;97.00;;;;;;5024767;28;20522;-60
2022/12/19 06:23:46;;;;;;;103.37;29.37;;;3.80;97.10;;;;;;5026085;28;20477;-59
2022/12/19 06:26:15;;;;;;;80.60;26.43;;;3.80;97.00;;;;;;5030501;28;20476;-60
2022/12/19 06:28:42;;;;;;;86.67;25.67;;;;;;;;;;5035793;28;20486;-60
2022/12/19 06:31:10;;;;;;;78.97;24.57;;;3.70;97.20;;;;;;5035878;28;20477;-60
2022/12/19 06:33:37;;;;;;;88.67;30.23;;;3.70;97.40;;;;;;5045176;28;21136;-59
2022/12/19 06:36:06;;;;;;;76.07;23.73;;;3.70;97.40;;;;;;5044709;28;20488;-59
2022/12/19 06:38:35;;;;;;;75.30;23.27;;;3.70;97.40;;;;;;5042611;28;20483;-59
2022/12/19 06:43:47;;;;;;;75.33;26.70;;;3.50;97.60;;;;;;5040952;28;20510;-60
2022/12/19 06:46:14;;;;;;;71.37;24.93;;;2.20;97.30;;;;;;5038934;28;20480;-60
2022/12/19 06:48:41;;;;;;;110.93;27.70;;;3.60;97.90;;;;;;5038727;28;20807;-60
2022/12/19 06:51:08;;;;;;;84.70;25.63;;;3.50;97.80;;;;;;5036077;28;20733;-60
2022/12/19 06:53:36;;;;;;;93.80;29.50;;;;;;;;;;5038806;28;20472;-59
2022/12/19 06:56:04;;;;;;;75.17;25.80;;;;;;;;;;5038177;28;20489;-59
2022/12/19 06:58:30;;;;;;;72.90;25.27;;;3.20;98.70;;;;;;5038836;28;20991;-60
2022/12/19 07:00:57;;;;;;;92.17;27.47;;;3.20;98.70;;;;;;5036047;28;20472;-59
2022/12/19 07:03:29;;;;;;;80.63;26.60;;;3.30;98.80;;;;;;5038610;28;20469;-59
2022/12/19 07:05:56;;;;;;;66.57;22.80;;;;;;;;;;5037380;28;20589;-59
2022/12/19 07:08:24;;;;;;;86.20;26.23;;;;;;;;;;5038652;28;20476;-60
2022/12/19 07:10:55;;;;;;;86.93;31.63;;;3.20;98.90;;;;;;5031139;28;21052;-59
2022/12/19 07:13:22;;;;;;;66.53;26.90;;;3.20;99.20;;;;;;5020732;28;20485;-59
2022/12/19 07:15:49;;;;;;;75.83;23.40;;;3.20;99.30;;;;;;5021741;28;20492;-59
2022/12/19 07:18:16;;;;;;;76.00;23.50;;;;;;;;;;5034218;28;20480;-59
2022/12/19 07:20:43;;;;;;;134.00;35.67;;;;;;;;;;5033999;28;20491;-59
2022/12/19 07:23:11;;;;;;;74.00;26.00;;;;;;;;;;5036896;28;20713;-59
2022/12/19 07:25:39;;;;;;;98.97;30.53;;;;;;;;;;5019491;28;20697;-59
2022/12/19 07:28:08;;;;;;;94.47;29.40;;;3.10;99.50;;;;;;5026577;28;20480;-59
2022/12/19 07:30:35;;;;;;;118.73;35.00;;;3.10;99.50;;;;;;5037301;28;20476;-59
2022/12/19 07:33:02;;;;;;;90.27;30.30;;;3.10;99.60;;;;;;5038473;28;20897;-59
2022/12/19 07:35:29;;;;;;;76.30;25.57;;;;;;;;;;5035406;28;20476;-60
2022/12/19 07:38:01;;;;;;;97.80;28.03;;;;;;;;;;5040144;28;21038;-59
2022/12/19 07:40:28;;;;;;;88.30;27.83;;;3.10;99.70;;;;;;5038437;28;20539;-59
2022/12/19 07:42:58;;;;;;;81.87;29.90;;;3.10;99.60;;;;;;5021937;28;20584;-59
2022/12/19 07:45:26;;;;;;;80.90;25.40;;;3.10;99.70;;;;;;5029066;28;20484;-60
2022/12/19 07:47:53;;;;;;;81.03;26.10;;;;;;;;;;5019780;28;20481;-59
2022/12/19 07:50:20;;;;;;;81.63;27.10;;;;;;;;;;5025843;28;20853;-59
2022/12/19 07:52:47;;;;;;;86.70;29.03;;;3.00;99.80;;;;;;5029728;28;20992;-60
2022/12/19 07:55:14;;;;;;;105.17;30.60;;;3.00;99.90;;;;;;5032477;28;20482;-60
2022/12/19 07:57:41;;;;;;;94.33;32.90;;;3.00;99.90;;;;;;5043474;28;20511;-60
2022/12/19 08:00:09;;;;;;;80.33;28.50;;;;;;;;;;5036508;28;20476;-60
2022/12/19 08:02:37;;;;;;;87.43;27.43;;;3.10;99.90;;;;;;5017992;28;20479;-59
2022/12/19 08:05:04;;;;;;;84.07;26.90;;;;;;;;;;5030993;28;21130;-59
2022/12/19 08:07:31;;;;;;;67.57;25.83;;;;;;;;;;5028591;28;20520;-60
2022/12/19 08:09:59;;;;;;;86.43;26.90;;;3.10;99.90;;;;;;5019628;28;20503;-59
2022/12/19 08:12:26;;;;;;;77.33;28.63;;;3.10;99.90;;;;;;5020872;28;20481;-59
2022/12/19 08:14:53;;;;;;;91.67;30.03;;;;;;;;;;5017509;28;20527;-59
2022/12/19 08:17:20;;;;;;;77.73;27.77;;;3.20;99.90;;;;;;5019180;28;20489;-59
2022/12/19 08:19:48;;;;;;;116.83;34.20;;;3.20;99.90;;;;;;5016026;28;21001;-60
2022/12/19 08:22:15;;;;;;;92.60;29.07;;;;;;;;;;5017828;28;20504;-60
2022/12/19 08:24:42;;;;;;;93.20;31.90;;;;;;;;;;5019848;28;21209;-59
2022/12/19 08:27:09;;;;;;;80.70;28.40;;;3.50;99.90;;;;;;5017765;28;20489;-60
2022/12/19 08:29:36;;;;;;;79.53;29.70;;;;;;;;;;5003866;28;20495;-60
2022/12/19 08:32:03;;;;;;;64.87;24.17;;;3.60;99.60;;;;;;5026062;28;20486;-60
2022/12/19 08:34:30;;;;;;;84.03;27.17;;;3.60;99.50;;;;;;5017123;28;20504;-60
2022/12/19 08:36:58;;;;;;;58.43;26.03;;;3.70;99.60;;;;;;5016815;28;20497;-60
2022/12/19 08:39:25;;;;;;;66.50;25.60;;;;;;;;;;5017768;28;20500;-60
2022/12/19 08:41:52;;;;;;;86.73;31.40;;;;;;;;;;5020235;28;20481;-59
2022/12/19 08:44:19;;;;;;;87.50;28.07;;;;;;;;;;5020123;28;20520;-60
2022/12/19 08:46:46;;;;;;;80.33;28.67;;;3.70;99.90;;;;;;5017210;28;20591;-60
2022/12/19 08:49:12;;;;;;;59.53;23.40;;;3.80;99.90;;;;;;5019174;28;20569;-60
2022/12/19 08:51:39;;;;;;;87.20;27.20;;;;;;;;;;5017121;28;20480;-60
2022/12/19 08:54:08;;;;;;;74.33;22.93;;;3.90;99.90;;;;;;5015617;28;20472;-60
2022/12/19 08:56:35;;;;;;;76.73;28.57;;;;;;;;;;5028006;28;20493;-61
2022/12/19 08:59:02;;;;;;;68.40;27.33;;;;;;;;;;5017123;28;20591;-61
2022/12/19 09:01:29;;;;;;;65.03;26.50;;;;;;;;;;5019790;28;20572;-61
2022/12/19 09:03:58;;;;;;;66.33;25.80;;;4.40;99.90;;;;;;5019051;28;20482;-60
2022/12/19 09:06:26;;;;;;;60.80;23.77;;;4.60;99.60;;;;;;5018103;28;20489;-60
2022/12/19 09:08:53;;;;;;;75.10;24.90;;;;;;;;;;5016472;28;20715;-61
2022/12/19 09:11:21;;;;;;;70.90;26.83;;;4.80;98.90;;;;;;5017698;28;20482;-61
2022/12/19 09:13:49;;;;;;;59.47;24.37;;;4.90;99.00;;;;;;5038623;28;21041;-61
2022/12/19 09:16:18;;;;;;;71.50;26.30;;;4.90;98.80;;;;;;5010239;28;20481;-61
2022/12/19 09:18:46;;;;;;;79.27;26.03;;;5.10;98.70;;;;;;5017165;28;20492;-60
2022/12/19 09:21:13;;;;;;;79.00;24.50;;;5.10;98.50;;;;;;5017003;28;20485;-61
2022/12/19 09:23:40;;;;;;;74.47;27.13;;;;;;;;;;5015710;28;20576;-60
2022/12/19 09:26:10;;;;;;;71.90;22.70;;;4.90;98.60;;;;;;5018404;28;21279;-60
2022/12/19 09:28:39;;;;;;;65.97;24.40;;;5.00;98.90;;;;;;5008096;28;20477;-60
2022/12/19 09:31:07;;;;;;;66.33;26.37;;;5.10;98.90;;;;;;5022191;28;20710;-61
2022/12/19 09:33:36;;;;;;;78.43;26.60;;;;;;;;;;5027256;28;20491;-60
2022/12/19 09:36:03;;;;;;;71.23;24.77;;;;;;;;;;5021280;28;20547;-61
2022/12/19 09:38:31;;;;;;;60.17;24.40;;;;;;;;;;5015214;28;20814;-60
2022/12/19 09:41:09;;;;;;;61.87;24.37;;;5.20;98.70;;;;;;5014210;28;20708;-60
2022/12/19 09:43:49;;;;;;;74.43;28.13;;;5.30;98.90;;;;;;5009416;28;20488;-60
2022/12/19 09:46:17;;;;;;;60.27;23.70;;;5.40;98.90;;;;;;5018553;28;20485;-61
2022/12/19 09:48:45;;;;;;;65.57;24.70;;;;;;;;;;5018339;28;20489;-60
2022/12/19 09:51:21;;;;;;;84.67;25.83;;;5.40;98.50;;;;;;5015450;28;20977;-60
2022/12/19 09:53:59;;;;;;;66.33;24.60;;;5.30;98.60;;;;;;5018028;28;20495;-60
2022/12/19 09:56:28;;;;;;;74.30;26.93;;;;;;;;;;5031897;28;20480;-60
2022/12/19 09:58:59;;;;;;;72.33;22.40;;;;;;;;;;5020720;28;21128;-60
2022/12/19 10:01:30;;;;;;;55.73;21.80;;;5.60;98.70;;;;;;5013756;28;20500;-60
2022/12/19 10:04:00;;;;;;;59.27;24.40;;;;;;;;;;5012000;28;20493;-60
2022/12/19 10:06:29;;;;;;;79.37;26.67;;;5.70;98.30;;;;;;5036930;28;20476;-59
2022/12/19 10:08:56;;;;;;;61.47;23.00;;;;;;;;;;5037480;28;20476;-60
2022/12/19 10:11:39;;;;;;;61.60;21.17;;;5.60;98.60;;;;;;5035987;28;20480;-60
2022/12/19 10:14:29;;;;;;;63.50;24.57;;;5.50;98.60;;;;;;5031223;28;20491;-60
2022/12/19 10:17:03;;;;;;;53.83;22.23;;;5.50;98.70;;;;;;5027031;28;20474;-60
2022/12/19 10:19:41;;;;;;;65.00;24.10;;;5.50;98.80;;;;;;5043179;28;20495;-60
2022/12/19 10:22:16;;;;;;;60.87;22.50;;;5.60;98.90;;;;;;5041992;28;20491;-60
2022/12/19 10:25:04;;;;;;;73.57;25.10;;;5.70;98.60;;;;;;5040925;28;20487;-60
2022/12/19 10:27:37;;;;;;;53.53;20.83;;;5.70;98.60;;;;;;5013414;28;20481;-60
2022/12/19 10:30:13;;;;;;;68.73;21.43;;;7.50;99.60;;;;;;5018947;28;20872;-60
2022/12/19 10:32:51;;;;;;;69.43;24.80;;;5.60;98.90;;;;;;5020857;28;20489;-60
2022/12/19 10:35:19;;;;;;;70.23;26.30;;;;;;;;;;5030322;28;20488;-60
2022/12/19 10:37:51;;;;;;;83.37;27.43;;;5.40;98.80;;;;;;5035516;28;20492;-60
2022/12/19 10:40:23;;;;;;;60.53;22.20;;;;;;;;;;5039889;28;20480;-60
2022/12/19 10:42:52;;;;;;;50.53;21.13;;;;;;;;;;5040614;28;20479;-60
2022/12/19 10:45:24;;;;;;;65.93;22.23;;;6.10;99.00;;;;;;5036763;28;20538;-61
2022/12/19 10:47:56;;;;;;;47.07;19.50;;;6.10;98.90;;;;;;5037336;28;20543;-60
2022/12/19 10:50:26;;;;;;;49.93;21.20;;;6.10;98.80;;;;;;5039032;28;20518;-61
2022/12/19 10:52:55;;;;;;;54.13;22.90;;;6.10;98.90;;;;;;5040039;28;20480;-60
2022/12/19 10:55:36;;;;;;;59.67;21.73;;;;;;;;;;5041090;28;20534;-60
2022/12/19 10:58:17;;;;;;;66.03;22.87;;;6.30;98.80;;;;;;5033489;28;20480;-60
2022/12/19 11:01:11;;;;;;;67.93;25.20;;;6.40;98.60;;;;;;5035778;28;20480;-60
2022/12/19 11:03:40;;;;;;;62.87;24.13;;;;;;;;;;5015553;28;20476;-60
2022/12/19 11:06:42;;;;;;;62.30;22.67;;;6.60;98.50;;;;;;5038898;28;20806;-60
2022/12/19 11:09:28;;;;;;;47.73;21.40;;;6.70;98.60;;;;;;5036762;28;20556;-60
2022/12/19 11:12:01;;;;;;;51.63;19.90;;;6.80;98.70;;;;;;5033680;28;20476;-60
2022/12/19 11:14:30;;;;;;;48.40;18.80;;;6.90;98.70;;;;;;5013735;28;20480;-61
2022/12/19 11:16:57;;;;;;;58.70;23.13;;;6.90;98.60;;;;;;5032103;28;20531;-60
2022/12/19 11:19:30;;;;;;;66.50;27.80;;;6.90;98.60;;;;;;5024380;28;20805;-61
2022/12/19 11:22:00;;;;;;;63.37;20.60;;;6.90;98.60;;;;;;5010823;28;20468;-60
2022/12/19 11:24:31;;;;;;;61.97;23.97;;;;;;;;;;5022369;28;20477;-60
2022/12/19 11:26:58;;;;;;;58.00;21.43;;;7.00;98.40;;;;;;5012011;28;20477;-61
2022/12/19 11:29:36;;;;;;;67.93;22.10;;;7.00;98.00;;;;;;5013767;28;20489;-60
2022/12/19 11:32:04;;;;;;;51.83;24.53;;;7.10;98.40;;;;;;5010570;28;21043;-61
2022/12/19 11:34:34;;;;;;;73.53;24.20;;;7.20;98.40;;;;;;5013525;28;20785;-60
2022/12/19 11:37:11;;;;;;;59.07;21.30;;;7.20;98.30;;;;;;5012833;28;20548;-60
2022/12/19 11:39:44;;;;;;;58.03;26.43;;;7.30;98.30;;;;;;5012931;28;20488;-60
2022/12/19 11:42:19;;;;;;;55.53;22.00;;;7.30;98.30;;;;;;5018560;28;20957;-60
2022/12/19 11:44:51;;;;;;;64.23;22.40;;;7.40;98.40;;;;;;5013314;28;20495;-61
2022/12/19 11:47:31;;;;;;;53.27;19.07;;;7.40;98.30;;;;;;5013084;28;20893;-61
2022/12/19 11:50:00;;;;;;;59.17;22.13;;;;;;;;;;5025201;28;21845;-60
2022/12/19 11:52:40;;;;;;;54.63;19.47;;;7.60;98.40;;;;;;5025720;28;20476;-60
2022/12/19 11:55:16;;;;;;;60.80;20.50;;;;;;;;;;5021349;28;20480;-60
2022/12/19 11:57:43;;;;;;;78.03;29.97;;;;;;;;;;5012971;28;20707;-61
2022/12/19 12:00:13;;;;;;;62.20;22.67;;;6.30;97.60;;;;;;5016384;28;20889;-61
2022/12/19 12:03:03;;;;;;;69.70;25.30;;;7.80;98.10;;;;;;5022137;28;20897;-61
2022/12/19 12:05:45;;;;;;;67.47;24.67;;;7.80;98.10;;;;;;5009189;28;20565;-60
2022/12/19 12:08:51;;;;;;;78.07;24.87;;;7.80;98.20;;;;;;5038482;28;20477;-61
2022/12/19 12:11:25;;;;;;;83.87;21.67;;;;;;;;;;5022922;28;20480;-61
2022/12/19 12:14:03;;;;;;;58.40;19.93;;;;;;;;;;5015910;28;20553;-60
2022/12/19 12:16:38;;;;;;;50.77;19.73;;;7.50;98.70;;;;;;5011608;28;20485;-60
2022/12/19 12:19:10;;;;;;;64.13;21.77;;;;;;;;;;5005754;28;20511;-61
2022/12/19 12:21:45;;;;;;;76.03;26.33;;;7.40;99.10;;;;;;5009256;28;20480;-61
2022/12/19 12:24:23;;;;;;;59.13;22.20;;;7.40;99.40;;;;;;5012347;28;20487;-60
2022/12/19 12:26:59;;;;;;;55.63;23.17;;;7.40;99.40;;;;;;5015392;28;20489;-61
2022/12/19 12:29:33;;;;;;;41.60;18.90;;;7.30;99.60;;;;;;5026791;28;20478;-61
2022/12/19 12:32:15;;;;;;;47.00;20.57;;;7.30;99.80;;;;;;5002620;28;20491;-61
2022/12/19 12:35:03;;;;;;;59.03;26.63;;;7.30;99.80;;;;;;5017625;28;20477;-61
2022/12/19 12:37:45;;;;;;;37.37;17.80;;;7.40;99.90;;;;;;5012922;28;20493;-60
2022/12/19 12:40:32;;;;;;;54.40;24.80;;;7.40;99.30;;;;;;5010773;28;20472;-61
2022/12/19 12:43:08;;;;;;;41.40;20.47;;;7.40;99.60;;;;;;5022231;28;20472;-61
2022/12/19 12:45:37;;;;;;;56.87;24.60;;;7.30;99.80;;;;;;5017567;28;20479;-61
2022/12/19 12:48:14;;;;;;;43.77;17.90;;;7.40;99.90;;;;;;5010945;28;20504;-60
2022/12/19 12:50:41;;;;;;;60.87;26.77;;;7.40;99.90;;;;;;5012161;28;20480;-61
2022/12/19 12:53:09;;;;;;;38.37;19.07;;;;;;;;;;5009534;28;20485;-61
2022/12/19 12:55:40;;;;;;;34.73;18.77;;;7.60;99.90;;;;;;5008291;28;20489;-61
2022/12/19 12:59:01;;;;;;;44.87;19.83;;;7.70;99.90;;;;;;5014928;28;20485;-61
2022/12/19 13:01:33;;;;;;;35.67;18.13;;;;;;;;;;5028592;28;21765;-61
2022/12/19 13:04:04;;;;;;;35.13;16.17;;;7.70;99.90;;;;;;5018997;28;20858;-61
2022/12/19 13:06:33;;;;;;;39.97;18.63;;;7.70;99.90;;;;;;5022385;28;20965;-61
2022/12/19 13:09:05;;;;;;;59.20;17.77;;;7.80;99.90;;;;;;5021288;28;20817;-61
2022/12/19 13:14:49;;;;;;;48.20;20.80;;;8.00;99.90;;;;;;5010743;28;20558;-61
2022/12/19 13:17:25;;;;;;;41.10;20.90;;;8.30;99.90;;;;;;5008256;28;20476;-61
2022/12/19 13:19:56;;;;;;;49.13;22.63;;;8.40;99.90;;;;;;5016306;28;20481;-60
2022/12/19 13:22:39;;;;;;;47.87;20.83;;;8.60;99.90;;;;;;5009289;28;20836;-61
2022/12/19 13:25:39;;;;;;;45.27;20.67;;;8.60;99.60;;;;;;5015882;28;21748;-60
2022/12/19 13:28:33;;;;;;;48.83;20.93;;;8.70;99.90;;;;;;5006523;28;20559;-61
2022/12/19 13:31:19;;;;;;;51.97;24.50;;;8.90;99.80;;;;;;5008169;28;21013;-61